Driver, Virginia
Current Conditions -  °F | °C
As of 6:15 AM on Thursday 23 Oct 2014 (Local Time) from KPVG Reporting Station
Overcast Overcast  
Wind Chill: 52°   Ceiling: 3900
Heat Index: 52°   Visibility: 10mi
Dew Point: 43°   Wind: 7mph
Humidity: 71%   Direction: 280°W
Pressure: 29.92"   Gusts: NA
Location:  36.8308°N, 76.4809°W
Report Text: KPVG 231015Z AUTO 28006KT 10SM OVC039 11/06 A2992 RMK AO1
Loading
Personal Weather Stations






























Interactive Weather Map
Tropical Storm Tracking
New forecast layout! Learn more

10-Day Weather Forecast

Advertisements
Track Severe Weather on mobile